Time;durP1;ratioP1;P1;durP2;ratioP2;P2;SDS_P1;SDS_P2;PMS_P1;PMS_P2;Temp;Humidity;BMP_temperature;BMP_pressure;BME280_temperature;BME280_humidity;BME280_pressure;Samples;Min_cycle;Max_cycle;Signal;HPM_P1;HPM_P2
2022/09/05 00:00:00;;;;;;;519.27;473.57;;;;;;;;;;16888703;28;20294;-89
2022/09/05 00:08:39;;;;;;;507.03;462.37;;;;;;;;;;16890284;29;20237;-88
2022/09/05 00:17:14;;;;;;;521.70;476.53;;;;;;;;;;16890682;29;20251;-88
2022/09/05 00:25:50;;;;;;;512.97;466.93;;;;;;;;;;16892278;29;20518;-88
2022/09/05 00:34:16;;;;;;;475.43;431.63;;;;;;;;;;16887943;28;20186;-88
2022/09/05 00:42:36;;;;;;;493.73;449.17;;;;;;;;;;16888509;29;20299;-88
2022/09/05 00:51:11;;;;;;;488.70;441.33;;;;;;;;;;16887065;29;20219;-88
2022/09/05 00:59:44;;;;;;;471.37;425.83;;;;;;;;;;16887998;28;20627;-88
2022/09/05 01:08:22;;;;;;;462.63;415.13;;;;;;;;;;16888226;28;20222;-88
2022/09/05 01:16:52;;;;;;;441.30;395.70;;;;;;;;;;16887712;28;20185;-88
2022/09/05 01:25:31;;;;;;;456.70;410.37;;;;;;;;;;16885550;29;20541;-88
2022/09/05 01:34:06;;;;;;;444.03;398.10;;;;;;;;;;16885159;28;20231;-88
2022/09/05 01:42:44;;;;;;;423.50;379.20;;;;;;;;;;16884853;29;20209;-89
2022/09/05 01:51:16;;;;;;;434.07;388.67;;;;;;;;;;16885029;29;20656;-89
2022/09/05 01:59:37;;;;;;;428.73;383.13;;;;;;;;;;16884376;28;20229;-89
2022/09/05 02:08:15;;;;;;;454.90;405.20;;;;;;;;;;16883864;29;20173;-89
2022/09/05 02:16:36;;;;;;;419.37;374.37;;;;;;;;;;16883654;28;20236;-89
2022/09/05 02:25:06;;;;;;;413.90;369.53;;;;;;;;;;16891129;28;20209;-89
2022/09/05 02:33:37;;;;;;;409.07;365.70;;;;;;;;;;16894999;29;20177;-88
2022/09/05 02:42:00;;;;;;;408.13;362.47;;;;;;;;;;16895565;29;20592;-89
2022/09/05 02:50:38;;;;;;;396.90;349.40;;;;;;;;;;16894125;29;20205;-89
2022/09/05 02:59:04;;;;;;;397.20;354.33;;;;;;;;;;16894951;28;20237;-88
2022/09/05 03:07:34;;;;;;;398.43;355.97;;;;;;;;;;16893374;29;20201;-89
2022/09/05 03:16:29;;;;;;;398.43;340.93;;;;;;;;;;16891898;29;20236;-89
2022/09/05 03:25:17;;;;;;;388.10;345.10;;;;;;;;;;16912099;29;20739;-89
2022/09/05 03:33:56;;;;;;;386.40;339.07;;;;;;;;;;16889959;29;20189;-88
2022/09/05 03:42:25;;;;;;;387.80;336.33;;;;;;;;;;16891679;29;20205;-89
2022/09/05 03:51:04;;;;;;;392.73;343.10;;;;;;;;;;16892254;29;20193;-88
2022/09/05 03:59:45;;;;;;;377.60;333.73;;;;;;;;;;16890968;28;20271;-89
2022/09/05 04:08:12;;;;;;;379.57;329.73;;;;;;;;;;16891317;29;20256;-88
2022/09/05 04:16:42;;;;;;;403.10;346.43;;;;;;;;;;16891872;28;20520;-89
2022/09/05 04:25:02;;;;;;;411.57;367.23;;;;;;;;;;16890433;29;20588;-89
2022/09/05 04:33:29;;;;;;;440.60;394.50;;;;;;;;;;16888329;28;20185;-89
2022/09/05 04:41:52;;;;;;;580.60;529.80;;;;;;;;;;16887692;28;20267;-90
2022/09/05 04:50:14;;;;;;;850.77;786.57;;;;;;;;;;16886559;28;20208;-89
2022/09/05 04:58:37;;;;;;;797.27;738.20;;;;;;;;;;16887682;28;20244;-90
2022/09/05 05:07:01;;;;;;;1031.30;952.83;;;;;;;;;;16887681;29;20611;-90
2022/09/05 05:15:23;;;;;;;1173.33;999.90;;;;;;;;;;16887022;29;20625;-90
2022/09/05 05:23:45;;;;;;;962.95;882.47;;;;;;;;;;16885130;29;20364;-91
2022/09/05 05:32:06;;;;;;;716.53;654.05;;;;;;;;;;16886368;29;20170;-91
2022/09/05 05:40:28;;;;;;;739.47;673.97;;;;;;;;;;16886569;29;20231;-90
2022/09/05 05:48:50;;;;;;;675.83;615.28;;;;;;;;;;16884731;28;20229;-91
2022/09/05 05:57:34;;;;;;;782.08;710.05;;;;;;;;;;16887589;28;20584;-91
2022/09/05 06:06:06;;;;;;;791.90;718.13;;;;;;;;;;16902721;28;20197;-91
2022/09/05 06:15:06;;;;;;;937.90;850.80;;;;;;;;;;16896017;29;20220;-91
2022/09/05 06:23:45;;;;;;;1299.82;999.90;;;;;;;;;;16937961;28;20228;-91
2022/09/05 06:32:08;;;;;;;1280.65;999.90;;;;;;;;;;16894973;29;20181;-87
2022/09/05 06:40:34;;;;;;;1292.95;999.90;;;;;;;;;;16893403;28;20254;-89
2022/09/05 06:49:00;;;;;;;1268.78;999.90;;;;;;;;;;16893141;29;20567;-88
2022/09/05 06:57:43;;;;;;;1255.35;999.90;;;;;;;;;;16894841;28;20716;-88
2022/09/05 07:06:13;;;;;;;1250.20;999.90;;;;;;;;;;16893149;29;20178;-89
2022/09/05 07:14:39;;;;;;;1091.25;993.63;;;;;;;;;;16891250;28;20260;-87
2022/09/05 07:23:07;;;;;;;688.10;631.72;;;;;;;;;;16891928;29;20204;-88
2022/09/05 07:31:31;;;;;;;753.17;691.38;;;;;;;;;;16891009;29;20189;-89
2022/09/05 07:39:54;;;;;;;752.15;690.83;;;;;;;;;;16890152;29;20355;-90
2022/09/05 07:48:24;;;;;;;724.78;665.88;;;;;;;;;;16892385;29;20203;-89
2022/09/05 07:56:48;;;;;;;931.40;857.70;;;;;;;;;;16889779;28;20642;-91
2022/09/05 08:05:08;;;;;;;963.38;887.40;;;;;;;;;;16891147;28;20201;-91
2022/09/05 08:13:41;;;;;;;778.07;716.60;;;;;;;;;;16888699;29;20545;-90
2022/09/05 08:22:02;;;;;;;895.83;826.50;;;;;;;;;;16889031;29;20468;-91
2022/09/05 08:30:22;;;;;;;828.90;764.58;;;;;;;;;;16887666;28;20197;-90
2022/09/05 08:38:43;;;;;;;880.40;813.25;;;;;;;;;;16885828;28;20218;-90
2022/09/05 08:47:17;;;;;;;801.97;740.58;;;;;;;;;;16880947;29;20712;-89
2022/09/05 08:55:41;;;;;;;751.72;694.72;;;;;;;;;;16882272;28;20694;-89
2022/09/05 09:04:11;;;;;;;697.33;644.95;;;;;;;;;;16887292;29;20205;-89
2022/09/05 09:12:34;;;;;;;638.90;591.25;;;;;;;;;;16887218;29;20173;-90
2022/09/05 09:21:00;;;;;;;596.27;552.10;;;;;;;;;;16886791;28;20657;-90
2022/09/05 09:29:22;;;;;;;566.33;525.43;;;;;;;;;;16886620;29;20509;-90
2022/09/05 09:37:51;;;;;;;557.77;517.60;;;;;;;;;;16884986;29;20209;-90
2022/09/05 09:46:18;;;;;;;604.43;560.67;;;;;;;;;;16884789;29;20543;-89
2022/09/05 09:54:39;;;;;;;538.87;500.37;;;;;;;;;;16885831;28;20195;-89
2022/09/05 10:03:08;;;;;;;508.77;472.77;;;;;;;;;;16885179;29;20213;-89
2022/09/05 10:11:44;;;;;;;536.47;498.00;;;;;;;;;;16883688;29;20181;-89
2022/09/05 10:20:05;;;;;;;511.13;474.70;;;;;;;;;;16883691;29;20209;-89
2022/09/05 10:28:34;;;;;;;476.10;442.87;;;;;;;;;;16885132;28;20220;-89
2022/09/05 10:37:01;;;;;;;482.43;448.43;;;;;;;;;;16882913;29;20170;-88
2022/09/05 10:45:28;;;;;;;471.90;438.93;;;;;;;;;;16887355;28;20669;-89
2022/09/05 10:54:08;;;;;;;467.40;434.40;;;;;;;;;;16894158;29;20295;-89
2022/09/05 11:02:29;;;;;;;441.27;410.77;;;;;;;;;;16895033;28;20241;-89
2022/09/05 11:10:56;;;;;;;441.53;410.83;;;;;;;;;;16892347;28;20183;-89
2022/09/05 11:19:28;;;;;;;419.67;391.07;;;;;;;;;;16893043;29;20248;-89
2022/09/05 11:27:50;;;;;;;458.37;426.23;;;;;;;;;;16892418;28;20177;-89
2022/09/05 11:36:14;;;;;;;471.33;438.17;;;;;;;;;;16892026;28;20685;-89
2022/09/05 11:44:43;;;;;;;491.33;456.40;;;;;;;;;;16890541;29;20208;-89
2022/09/05 11:53:22;;;;;;;455.33;423.30;;;;;;;;;;16890045;28;20223;-89
2022/09/05 12:01:57;;;;;;;485.03;450.30;;;;;;;;;;16890974;29;20225;-89
2022/09/05 12:10:21;;;;;;;442.90;411.75;;;;;;;;;;16889213;28;20220;-87
2022/09/05 12:18:55;;;;;;;424.10;394.48;;;;;;;;;;16889581;29;20219;-87
2022/09/05 12:27:18;;;;;;;433.95;403.45;;;;;;;;;;16890367;29;20169;-87
2022/09/05 12:35:41;;;;;;;407.15;379.05;;;;;;;;;;16887265;28;20634;-87
2022/09/05 12:44:01;;;;;;;410.60;382.27;;;;;;;;;;16887566;29;20700;-87
2022/09/05 12:52:32;;;;;;;374.17;349.08;;;;;;;;;;16887406;29;20201;-87
2022/09/05 13:01:05;;;;;;;363.85;339.75;;;;;;;;;;16888283;28;20237;-87
2022/09/05 13:09:27;;;;;;;358.45;334.73;;;;;;;;;;16887379;29;20212;-88
2022/09/05 13:18:01;;;;;;;358.23;334.65;;;;;;;;;;16886361;29;20669;-87
2022/09/05 13:26:31;;;;;;;353.15;329.92;;;;;;;;;;16886507;29;20180;-87
2022/09/05 13:34:54;;;;;;;347.55;325.00;;;;;;;;;;16885871;29;20607;-87
2022/09/05 13:43:20;;;;;;;363.35;339.10;;;;;;;;;;16885410;29;20212;-87
2022/09/05 13:51:42;;;;;;;361.40;337.35;;;;;;;;;;16885401;29;20201;-87
2022/09/05 14:00:06;;;;;;;355.00;331.55;;;;;;;;;;16883897;28;20233;-87
2022/09/05 14:08:26;;;;;;;348.10;325.27;;;;;;;;;;16884936;28;20517;-87
2022/09/05 14:17:00;;;;;;;359.80;335.95;;;;;;;;;;16884373;28;20197;-87
2022/09/05 14:25:23;;;;;;;386.48;360.23;;;;;;;;;;16896139;29;20561;-87
2022/09/05 14:33:59;;;;;;;389.35;362.80;;;;;;;;;;16894042;28;20177;-87
2022/09/05 14:42:20;;;;;;;351.98;328.92;;;;;;;;;;16894016;29;20557;-87
2022/09/05 14:50:53;;;;;;;327.50;306.73;;;;;;;;;;16893009;28;20232;-87
2022/09/05 14:59:16;;;;;;;252.60;237.75;;;;;;;;;;16893618;29;20628;-87
2022/09/05 15:07:41;;;;;;;258.95;243.95;;;;;;;;;;16892567;29;20554;-87
2022/09/05 15:16:06;;;;;;;278.25;261.98;;;;;;;;;;16886537;28;20275;-87
2022/09/05 15:24:29;;;;;;;257.80;242.95;;;;;;;;;;16883912;28;20821;-87
2022/09/05 15:32:49;;;;;;;242.65;229.00;;;;;;;;;;16888134;28;20177;-87
2022/09/05 15:41:13;;;;;;;226.50;213.98;;;;;;;;;;16889852;28;20243;-87
2022/09/05 15:49:51;;;;;;;248.87;234.97;;;;;;;;;;16885181;29;20990;-87
2022/09/05 15:58:12;;;;;;;258.37;243.97;;;;;;;;;;16885462;28;20323;-86
2022/09/05 16:06:33;;;;;;;253.93;239.83;;;;;;;;;;16887675;28;20708;-87
2022/09/05 16:14:54;;;;;;;238.77;225.87;;;;;;;;;;16890148;29;20598;-87
2022/09/05 16:23:21;;;;;;;231.80;219.23;;;;;;;;;;16888577;28;20217;-87
2022/09/05 16:31:45;;;;;;;216.97;205.43;;;;;;;;;;16889262;28;20177;-86
2022/09/05 16:40:12;;;;;;;246.67;233.47;;;;;;;;;;16888238;28;20641;-87
2022/09/05 16:48:35;;;;;;;257.80;243.87;;;;;;;;;;16887932;29;20637;-87
2022/09/05 16:57:00;;;;;;;271.50;256.40;;;;;;;;;;16889343;28;20241;-86
2022/09/05 17:05:32;;;;;;;247.83;234.77;;;;;;;;;;16887174;28;20240;-87
2022/09/05 17:13:53;;;;;;;245.90;233.00;;;;;;;;;;16890286;29;20173;-86
2022/09/05 17:22:27;;;;;;;254.60;241.17;;;;;;;;;;16886200;29;20209;-86
2022/09/05 17:30:48;;;;;;;219.47;208.27;;;;;;;;;;16886720;28;20654;-86
2022/09/05 17:39:11;;;;;;;243.07;230.27;;;;;;;;;;16885335;28;20215;-86
2022/09/05 17:47:33;;;;;;;195.23;185.33;;;;;;;;;;16885524;28;20392;-87
2022/09/05 17:55:53;;;;;;;238.00;225.67;;;;;;;;;;16890651;28;20244;-86
2022/09/05 18:04:33;;;;;;;226.97;215.53;;;;;;;;;;16896738;29;20205;-87
2022/09/05 18:13:10;;;;;;;171.77;163.07;;;;;;;;;;16897669;29;20177;-87
2022/09/05 18:21:41;;;;;;;232.30;220.07;;;;;;;;;;16895924;29;20288;-87
2022/09/05 18:30:07;;;;;;;221.10;209.30;;;;;;;;;;16894413;29;20174;-87
2022/09/05 18:38:28;;;;;;;281.73;266.13;;;;;;;;;;16894144;28;20215;-87
2022/09/05 18:46:50;;;;;;;251.47;237.80;;;;;;;;;;16893777;28;20181;-87
2022/09/05 18:55:16;;;;;;;305.13;288.03;;;;;;;;;;16894254;28;20704;-88
2022/09/05 19:03:39;;;;;;;265.87;251.80;;;;;;;;;;16893568;29;20221;-87
2022/09/05 19:12:01;;;;;;;273.90;259.10;;;;;;;;;;16892980;28;20177;-88
2022/09/05 19:20:23;;;;;;;337.67;318.23;;;;;;;;;;16892967;29;20216;-87
2022/09/05 19:28:49;;;;;;;328.47;309.53;;;;;;;;;;16892862;29;20530;-87
2022/09/05 19:37:11;;;;;;;287.93;271.73;;;;;;;;;;16892873;29;20526;-87
2022/09/05 19:45:32;;;;;;;277.33;262.00;;;;;;;;;;16891798;29;20555;-87
2022/09/05 19:53:53;;;;;;;282.43;266.73;;;;;;;;;;16890401;28;20228;-87
2022/09/05 20:02:20;;;;;;;270.20;255.10;;;;;;;;;;16891293;28;20248;-87
2022/09/05 20:10:41;;;;;;;260.93;246.37;;;;;;;;;;16889613;29;20184;-87
2022/09/05 20:19:05;;;;;;;278.57;262.33;;;;;;;;;;16889064;29;20244;-88
2022/09/05 20:27:27;;;;;;;279.73;263.80;;;;;;;;;;16889643;29;20181;-88
2022/09/05 20:35:49;;;;;;;282.23;265.63;;;;;;;;;;16888085;29;20539;-88
2022/09/05 20:44:18;;;;;;;269.30;253.67;;;;;;;;;;16888811;29;20209;-87
2022/09/05 20:52:46;;;;;;;282.07;265.67;;;;;;;;;;16889339;29;20197;-88
2022/09/05 21:01:12;;;;;;;244.30;230.07;;;;;;;;;;16887313;28;20245;-88
2022/09/05 21:09:32;;;;;;;277.30;260.77;;;;;;;;;;16886659;28;20580;-88
2022/09/05 21:18:00;;;;;;;247.93;233.10;;;;;;;;;;16889062;28;20237;-87
2022/09/05 21:26:22;;;;;;;256.20;241.10;;;;;;;;;;16885731;29;20188;-87
2022/09/05 21:34:45;;;;;;;264.93;248.63;;;;;;;;;;16886544;29;20243;-87
2022/09/05 21:43:06;;;;;;;269.00;252.47;;;;;;;;;;16887052;28;20207;-87
2022/09/05 21:51:26;;;;;;;271.03;253.93;;;;;;;;;;16884783;29;20244;-87
2022/09/05 21:59:50;;;;;;;277.87;260.57;;;;;;;;;;16885804;28;20677;-88
2022/09/05 22:08:12;;;;;;;254.67;239.03;;;;;;;;;;16886108;29;20209;-87
2022/09/05 22:16:32;;;;;;;250.27;234.67;;;;;;;;;;16884822;29;20177;-87
2022/09/05 22:24:55;;;;;;;243.73;228.70;;;;;;;;;;16884491;29;20296;-87
2022/09/05 22:33:15;;;;;;;227.30;213.50;;;;;;;;;;16884325;28;20178;-87
2022/09/05 22:41:36;;;;;;;212.03;199.30;;;;;;;;;;16889951;29;20205;-87
2022/09/05 22:49:56;;;;;;;213.60;201.67;;;;;;;;;;16894557;28;20247;-87
2022/09/05 22:58:16;;;;;;;233.67;220.47;;;;;;;;;;16893688;28;20267;-87
2022/09/05 23:06:37;;;;;;;242.17;228.37;;;;;;;;;;16893753;28;20219;-88
2022/09/05 23:14:57;;;;;;;168.57;159.03;;;;;;;;;;16892508;29;20174;-87
2022/09/05 23:23:17;;;;;;;215.93;203.87;;;;;;;;;;16893883;28;20201;-87
2022/09/05 23:31:38;;;;;;;183.93;173.83;;;;;;;;;;16892675;28;20177;-87
2022/09/05 23:39:58;;;;;;;206.80;195.00;;;;;;;;;;16891571;28;20209;-87
2022/09/05 23:48:19;;;;;;;178.43;168.53;;;;;;;;;;16891118;28;20225;-87
2022/09/05 23:56:39;;;;;;;211.57;199.70;;;;;;;;;;16891936;28;20359;-87
